Time;durP1;ratioP1;P1;durP2;ratioP2;P2;SDS_P1;SDS_P2;PMS_P1;PMS_P2;Temp;Humidity;BMP_temperature;BMP_pressure;BME280_temperature;BME280_humidity;BME280_pressure;Samples;Min_cycle;Max_cycle;Signal;HPM_P1;HPM_P2
2023/03/14 00:00:38;;;;;;;3.72;1.00;;;13.90;99.90;;;;;;4992230;28;20175;-66
2023/03/14 00:03:04;;;;;;;2.42;1.20;;;13.90;99.90;;;;;;4991567;28;20204;-66
2023/03/14 00:05:32;;;;;;;2.95;1.10;;;13.90;99.90;;;;;;4991742;28;20168;-65
2023/03/14 00:08:00;;;;;;;3.50;1.10;;;13.80;99.90;;;;;;4993267;28;20227;-79
2023/03/14 00:10:28;;;;;;;2.88;1.10;;;13.80;99.90;;;;;;4993010;28;20231;-74
2023/03/14 00:12:54;;;;;;;2.53;0.93;;;13.80;99.90;;;;;;4995911;28;20172;-76
2023/03/14 00:15:19;;;;;;;3.90;1.17;;;13.80;99.90;;;;;;4995850;28;20286;-72
2023/03/14 00:17:45;;;;;;;3.85;1.10;;;13.70;99.90;;;;;;4996368;28;20207;-77
2023/03/14 00:20:11;;;;;;;5.47;1.52;;;13.70;99.90;;;;;;4996376;28;20267;-74
2023/03/14 00:22:41;;;;;;;4.65;1.13;;;13.80;99.90;;;;;;4995760;28;20243;-77
2023/03/14 00:25:10;;;;;;;2.63;1.15;;;13.70;99.90;;;;;;4996133;28;20168;-79
2023/03/14 00:27:38;;;;;;;4.57;1.38;;;13.70;99.90;;;;;;4995980;28;20168;-78
2023/03/14 00:30:05;;;;;;;3.88;1.10;;;13.80;99.90;;;;;;4995667;28;20344;-78
2023/03/14 00:32:33;;;;;;;4.32;1.17;;;13.80;99.90;;;;;;4995810;28;20184;-78
2023/03/14 00:35:00;;;;;;;2.92;1.10;;;13.90;99.90;;;;;;4995737;28;20223;-78
2023/03/14 00:37:29;;;;;;;3.47;1.00;;;13.90;99.90;;;;;;4995959;28;20179;-79
2023/03/14 00:39:58;;;;;;;2.85;0.90;;;13.90;99.90;;;;;;4995000;28;20234;-74
2023/03/14 00:42:24;;;;;;;4.15;1.20;;;14.00;99.90;;;;;;4995149;28;20211;-76
2023/03/14 00:44:51;;;;;;;3.65;1.10;;;14.00;99.90;;;;;;4995303;28;20194;-72
2023/03/14 00:47:19;;;;;;;5.00;1.45;;;13.90;99.90;;;;;;4994961;28;20176;-78
2023/03/14 00:49:45;;;;;;;2.58;1.00;;;14.00;99.90;;;;;;4995269;28;20270;-71
2023/03/14 00:52:10;;;;;;;3.00;1.10;;;14.00;99.90;;;;;;4995975;28;20188;-77
2023/03/14 00:54:38;;;;;;;3.47;1.15;;;14.00;99.90;;;;;;4995176;28;20258;-75
2023/03/14 00:57:06;;;;;;;3.97;1.20;;;14.00;99.90;;;;;;4994977;28;20208;-79
2023/03/14 00:59:34;;;;;;;4.15;1.38;;;14.00;99.90;;;;;;4994863;28;20176;-78
2023/03/14 01:02:00;;;;;;;4.03;1.20;;;14.00;99.90;;;;;;4995099;28;20263;-78
2023/03/14 01:04:26;;;;;;;5.63;1.30;;;14.00;99.90;;;;;;4994718;28;20168;-78
2023/03/14 01:06:54;;;;;;;2.80;1.10;;;14.00;99.90;;;;;;4995493;28;20176;-78
2023/03/14 01:09:19;;;;;;;3.83;1.30;;;14.00;99.90;;;;;;4994764;28;20168;-77
2023/03/14 01:11:46;;;;;;;1.67;0.73;;;14.00;99.90;;;;;;4995190;28;20172;-79
2023/03/14 01:14:16;;;;;;;2.88;1.20;;;14.00;99.90;;;;;;4994981;28;20184;-77
2023/03/14 01:16:42;;;;;;;2.78;1.00;;;14.00;99.90;;;;;;4995520;28;20273;-75
2023/03/14 01:19:08;;;;;;;2.40;1.00;;;14.00;99.90;;;;;;4995046;28;20171;-74
2023/03/14 01:21:35;;;;;;;2.83;0.90;;;14.00;99.90;;;;;;4994381;28;20204;-76
2023/03/14 01:24:02;;;;;;;3.75;1.20;;;14.00;99.90;;;;;;4995008;28;20196;-78
2023/03/14 01:26:34;;;;;;;4.82;1.20;;;14.00;99.90;;;;;;4995032;28;20172;-77
2023/03/14 01:29:00;;;;;;;2.22;0.95;;;14.00;99.90;;;;;;4994307;28;20198;-71
2023/03/14 01:31:29;;;;;;;4.72;1.40;;;14.00;99.90;;;;;;4994488;28;20200;-79
2023/03/14 01:33:55;;;;;;;3.00;1.00;;;14.00;99.90;;;;;;4994295;28;20176;-79
2023/03/14 01:36:21;;;;;;;2.28;0.90;;;14.00;99.90;;;;;;4994933;28;20264;-79
2023/03/14 01:38:49;;;;;;;4.03;1.23;;;14.00;99.90;;;;;;4994296;28;20196;-77
2023/03/14 01:41:21;;;;;;;2.05;0.90;;;14.00;99.90;;;;;;4994394;28;20195;-76
2023/03/14 01:43:48;;;;;;;3.60;1.00;;;13.90;99.90;;;;;;4994545;28;20176;-77
2023/03/14 01:46:18;;;;;;;3.22;0.90;;;13.90;99.90;;;;;;4994087;28;20183;-78
2023/03/14 01:48:58;;;;;;;3.03;1.00;;;13.80;99.90;;;;;;4994474;28;20199;-75
2023/03/14 01:51:35;;;;;;;2.97;1.17;;;13.80;99.90;;;;;;4993923;28;20200;-78
2023/03/14 01:54:17;;;;;;;3.13;0.93;;;13.80;99.90;;;;;;4995126;28;20201;-76
2023/03/14 01:56:47;;;;;;;2.60;0.80;;;13.80;99.90;;;;;;4994479;28;20267;-74
2023/03/14 01:59:13;;;;;;;3.25;0.95;;;13.80;99.90;;;;;;4993977;28;20228;-76
2023/03/14 02:01:42;;;;;;;2.35;1.00;;;13.90;99.90;;;;;;4993572;28;20227;-78
2023/03/14 02:04:09;;;;;;;3.20;1.00;;;13.70;99.90;;;;;;4994384;28;20234;-75
2023/03/14 02:06:52;;;;;;;3.38;1.00;;;13.70;99.90;;;;;;4994395;28;20168;-79
2023/03/14 02:09:19;;;;;;;3.55;1.20;;;13.60;99.90;;;;;;4993837;28;20168;-79
2023/03/14 02:11:45;;;;;;;4.35;1.05;;;13.60;99.90;;;;;;4993659;28;20234;-73
2023/03/14 02:14:24;;;;;;;2.53;0.88;;;13.50;99.90;;;;;;4994626;28;20184;-77
2023/03/14 02:16:50;;;;;;;4.00;1.05;;;13.50;99.90;;;;;;4994468;28;20180;-79
2023/03/14 02:19:20;;;;;;;3.70;0.80;;;13.50;99.90;;;;;;4993703;28;20291;-78
2023/03/14 02:22:10;;;;;;;3.40;0.90;;;13.40;99.90;;;;;;4994484;28;20207;-79
2023/03/14 02:24:54;;;;;;;3.72;1.08;;;13.40;99.90;;;;;;4993816;28;20196;-79
2023/03/14 02:27:22;;;;;;;3.42;1.15;;;13.40;99.90;;;;;;4993899;28;20218;-79
2023/03/14 02:29:58;;;;;;;2.17;0.88;;;13.30;99.90;;;;;;4993490;28;20176;-79
2023/03/14 02:32:26;;;;;;;2.60;1.00;;;13.30;99.90;;;;;;4993785;28;20175;-79
2023/03/14 02:34:56;;;;;;;3.42;1.35;;;13.30;99.90;;;;;;4993431;28;20180;-78
2023/03/14 02:37:26;;;;;;;4.10;1.25;;;13.20;99.90;;;;;;4993072;28;20227;-79
2023/03/14 02:39:52;;;;;;;3.33;1.20;;;13.20;99.90;;;;;;4993654;28;20180;-78
2023/03/14 02:42:18;;;;;;;3.42;1.20;;;13.20;99.90;;;;;;4993224;28;20211;-79
2023/03/14 02:45:01;;;;;;;4.47;1.08;;;13.20;99.90;;;;;;4992799;28;20207;-80
2023/03/14 02:47:30;;;;;;;4.25;1.20;;;13.10;99.90;;;;;;4993893;28;20192;-77
2023/03/14 02:50:06;;;;;;;2.08;1.05;;;13.10;99.90;;;;;;4993377;28;20199;-77
2023/03/14 02:52:34;;;;;;;1.80;0.90;;;13.10;99.90;;;;;;4993146;28;20176;-77
2023/03/14 02:54:59;;;;;;;5.43;1.38;;;13.10;99.90;;;;;;4993387;28;20180;-77
2023/03/14 02:57:27;;;;;;;5.15;1.33;;;13.00;99.90;;;;;;4993281;28;20200;-77
2023/03/14 02:59:53;;;;;;;4.35;1.15;;;13.00;99.90;;;;;;4993942;28;20187;-78
2023/03/14 03:02:21;;;;;;;3.75;1.27;;;13.00;99.90;;;;;;4994511;28;20199;-74
2023/03/14 03:04:49;;;;;;;2.58;1.00;;;13.10;99.90;;;;;;4997424;28;20178;-73
2023/03/14 03:07:17;;;;;;;3.88;1.35;;;13.00;99.90;;;;;;4997690;28;20203;-78
2023/03/14 03:09:42;;;;;;;5.63;1.60;;;13.00;99.90;;;;;;4998316;28;20239;-76
2023/03/14 03:12:10;;;;;;;7.97;1.98;;;13.00;99.90;;;;;;5000511;28;20246;-78
2023/03/14 03:14:37;;;;;;;4.22;1.27;;;13.00;99.90;;;;;;4999677;28;20189;-75
2023/03/14 03:17:05;;;;;;;2.45;1.20;;;12.90;99.90;;;;;;4997065;28;20258;-70
2023/03/14 03:19:32;;;;;;;4.10;1.20;;;13.00;99.90;;;;;;4996139;28;20282;-78
2023/03/14 03:22:00;;;;;;;4.32;1.23;;;13.00;99.90;;;;;;4997448;28;20267;-75
2023/03/14 03:24:33;;;;;;;3.40;1.30;;;13.00;99.90;;;;;;4999279;28;20168;-71
2023/03/14 03:26:58;;;;;;;5.00;1.52;;;13.00;99.90;;;;;;5007975;28;20200;-76
2023/03/14 03:29:29;;;;;;;5.38;1.40;;;13.00;99.90;;;;;;4993395;28;20183;-79
2023/03/14 03:31:54;;;;;;;5.00;1.15;;;13.00;99.90;;;;;;4992746;28;20202;-78
2023/03/14 03:34:20;;;;;;;4.30;1.30;;;13.10;99.90;;;;;;4992272;28;20203;-78
2023/03/14 03:36:45;;;;;;;6.05;1.30;;;13.00;99.90;;;;;;4992082;28;20179;-78
2023/03/14 03:39:11;;;;;;;4.88;1.55;;;13.00;99.90;;;;;;4992328;28;20196;-78
2023/03/14 03:41:37;;;;;;;4.80;1.27;;;13.00;99.90;;;;;;4992199;28;20203;-78
2023/03/14 03:44:02;;;;;;;5.05;1.30;;;13.00;99.90;;;;;;4992423;28;20175;-69
2023/03/14 03:46:28;;;;;;;3.65;1.30;;;13.00;99.90;;;;;;4992372;28;20182;-77
2023/03/14 03:48:59;;;;;;;5.07;1.52;;;13.10;99.90;;;;;;4992708;28;20172;-76
2023/03/14 03:51:25;;;;;;;4.40;1.42;;;13.00;99.90;;;;;;4991939;28;20196;-76
2023/03/14 03:53:50;;;;;;;3.40;1.10;;;13.10;99.90;;;;;;4992322;28;20176;-78
2023/03/14 03:56:17;;;;;;;3.08;1.10;;;13.00;99.90;;;;;;4992205;28;20168;-77
2023/03/14 03:58:44;;;;;;;3.45;0.90;;;13.00;99.90;;;;;;4992272;28;20238;-78
2023/03/14 04:01:13;;;;;;;4.78;1.40;;;13.10;99.90;;;;;;4991951;28;20171;-74
2023/03/14 04:03:38;;;;;;;5.60;1.15;;;13.10;99.90;;;;;;4992953;28;20298;-77
2023/03/14 04:06:14;;;;;;;3.47;1.10;;;13.00;99.90;;;;;;4992153;28;20234;-78
2023/03/14 04:08:41;;;;;;;4.15;1.20;;;13.00;99.90;;;;;;4992333;28;20237;-74
2023/03/14 04:11:07;;;;;;;2.90;0.95;;;13.10;99.90;;;;;;4992398;28;20200;-72
2023/03/14 04:13:33;;;;;;;3.63;1.00;;;13.00;99.90;;;;;;4992001;28;20176;-80
2023/03/14 04:16:00;;;;;;;5.18;1.48;;;13.00;99.90;;;;;;4992153;28;20185;-75
2023/03/14 04:18:27;;;;;;;4.82;1.40;;;13.00;99.90;;;;;;4991895;28;20212;-78
2023/03/14 04:20:56;;;;;;;2.75;0.90;;;13.00;99.90;;;;;;4992795;28;20259;-78
2023/03/14 04:23:25;;;;;;;2.72;0.80;;;13.00;99.90;;;;;;4991921;28;20195;-76
2023/03/14 04:25:51;;;;;;;3.00;1.25;;;13.00;99.90;;;;;;4992901;28;20168;-79
2023/03/14 04:28:17;;;;;;;2.80;1.10;;;13.00;99.90;;;;;;4992249;28;20234;-75
2023/03/14 04:30:45;;;;;;;2.38;1.00;;;13.00;99.90;;;;;;4992131;28;20196;-79
2023/03/14 04:33:16;;;;;;;1.90;0.80;;;13.00;99.90;;;;;;4993143;28;20271;-74
2023/03/14 04:35:45;;;;;;;2.55;0.73;;;13.00;99.90;;;;;;4993780;28;20215;-72
2023/03/14 04:38:12;;;;;;;2.17;1.20;;;13.00;99.90;;;;;;4993167;28;20180;-78
2023/03/14 04:40:39;;;;;;;2.08;0.77;;;13.00;99.90;;;;;;4993110;28;20259;-75
2023/03/14 04:43:10;;;;;;;2.38;0.80;;;13.00;99.90;;;;;;4993344;28;20208;-77
2023/03/14 04:45:43;;;;;;;2.35;0.70;;;13.00;99.90;;;;;;4992645;28;20176;-78
2023/03/14 04:48:09;;;;;;;1.50;0.73;;;13.00;99.90;;;;;;4993203;28;20179;-77
2023/03/14 04:50:34;;;;;;;1.52;0.75;;;12.90;99.90;;;;;;4992946;28;20211;-79
2023/03/14 04:53:05;;;;;;;2.78;0.90;;;12.80;99.90;;;;;;4993629;28;20183;-70
2023/03/14 04:55:32;;;;;;;1.40;0.73;;;12.70;99.90;;;;;;4994725;28;20183;-81
2023/03/14 04:58:00;;;;;;;1.63;0.70;;;12.60;99.90;;;;;;4997845;28;20198;-77
2023/03/14 05:00:27;;;;;;;1.40;0.70;;;12.40;99.90;;;;;;4997738;28;20266;-77
2023/03/14 05:02:53;;;;;;;1.90;0.50;;;12.30;99.90;;;;;;4995351;28;20219;-75
2023/03/14 05:05:23;;;;;;;1.50;0.40;;;12.30;99.90;;;;;;4996733;28;20165;-76
2023/03/14 05:07:51;;;;;;;1.55;0.90;;;12.20;99.90;;;;;;4996432;28;20165;-77
2023/03/14 05:10:19;;;;;;;1.98;0.50;;;12.10;99.90;;;;;;4998831;28;20192;-77
2023/03/14 05:12:47;;;;;;;1.05;0.60;;;12.20;99.90;;;;;;4994573;28;20176;-78
2023/03/14 05:15:14;;;;;;;2.25;0.70;;;12.10;99.90;;;;;;4995207;28;20180;-77
2023/03/14 05:17:42;;;;;;;1.23;0.50;;;12.10;99.90;;;;;;4997095;28;20224;-73
2023/03/14 05:20:12;;;;;;;1.35;0.80;;;12.10;99.90;;;;;;4996175;28;20173;-77
2023/03/14 05:22:38;;;;;;;0.98;0.65;;;12.00;99.90;;;;;;4994437;28;20199;-75
2023/03/14 05:25:06;;;;;;;1.73;0.68;;;12.00;99.90;;;;;;4995933;28;20179;-79
2023/03/14 05:27:33;;;;;;;1.05;0.47;;;11.90;99.90;;;;;;5000210;28;20172;-74
2023/03/14 05:29:58;;;;;;;1.27;0.50;;;12.00;99.90;;;;;;5008478;28;20172;-70
2023/03/14 05:32:26;;;;;;;2.25;0.40;;;11.90;99.90;;;;;;4983865;28;20203;-79
2023/03/14 05:34:57;;;;;;;1.02;0.70;;;11.80;99.90;;;;;;4995030;28;20259;-75
2023/03/14 05:37:28;;;;;;;1.58;0.40;;;11.90;99.90;;;;;;4995646;28;20175;-78
2023/03/14 05:39:54;;;;;;;1.58;0.65;;;11.80;99.90;;;;;;4995099;28;20295;-72
2023/03/14 05:42:22;;;;;;;1.00;0.70;;;11.90;99.90;;;;;;4993996;28;20239;-78
2023/03/14 05:44:48;;;;;;;1.30;0.80;;;11.90;99.90;;;;;;4994888;28;20176;-78
2023/03/14 05:47:14;;;;;;;0.30;0.30;;;11.90;99.90;;;;;;4994120;28;20196;-75
2023/03/14 05:49:44;;;;;;;0.40;0.40;;;12.00;99.90;;;;;;4994420;28;20179;-74
2023/03/14 05:52:12;;;;;;;1.83;0.50;;;12.00;99.90;;;;;;4994096;28;20180;-77
2023/03/14 05:54:39;;;;;;;1.15;0.63;;;12.00;99.90;;;;;;4993781;28;20211;-77
2023/03/14 05:57:08;;;;;;;1.38;0.88;;;12.00;99.90;;;;;;4994133;28;20274;-77
2023/03/14 05:59:36;;;;;;;0.68;0.50;;;12.00;99.90;;;;;;4994427;28;20180;-78
2023/03/14 06:02:02;;;;;;;0.80;0.60;;;12.10;99.90;;;;;;4994380;28;20219;-77
2023/03/14 06:04:32;;;;;;;1.13;0.70;;;12.10;99.90;;;;;;4994028;28;20210;-79
2023/03/14 06:07:00;;;;;;;1.42;0.85;;;12.20;99.90;;;;;;4994202;28;20172;-76
2023/03/14 06:09:28;;;;;;;1.58;0.52;;;12.10;99.90;;;;;;4992752;28;20192;-75
2023/03/14 06:11:56;;;;;;;0.70;0.57;;;12.10;99.90;;;;;;4993637;28;20184;-79
2023/03/14 06:14:22;;;;;;;2.50;0.50;;;12.10;99.90;;;;;;4994507;28;20180;-77
2023/03/14 06:16:48;;;;;;;0.50;0.50;;;12.10;99.90;;;;;;4993717;28;20172;-78
2023/03/14 06:19:17;;;;;;;1.10;0.60;;;12.10;99.90;;;;;;4993970;28;20212;-79
2023/03/14 06:21:42;;;;;;;3.05;1.30;;;12.10;99.90;;;;;;4994227;28;20204;-79
2023/03/14 06:24:10;;;;;;;1.05;0.38;;;12.00;99.90;;;;;;4993736;28;20290;-75
2023/03/14 06:26:36;;;;;;;0.80;0.40;;;12.00;99.90;;;;;;4993471;28;20290;-79
2023/03/14 06:29:04;;;;;;;0.60;0.50;;;12.00;99.90;;;;;;4994011;28;20203;-79
2023/03/14 06:31:33;;;;;;;0.50;0.38;;;12.10;99.90;;;;;;4993399;28;20230;-78
2023/03/14 06:33:59;;;;;;;0.75;0.55;;;12.10;99.90;;;;;;4993079;28;20200;-78
2023/03/14 06:36:27;;;;;;;1.48;0.70;;;12.10;99.90;;;;;;4993840;28;20183;-76
2023/03/14 06:38:53;;;;;;;0.63;0.40;;;12.10;99.90;;;;;;4993173;28;20179;-74
2023/03/14 06:41:23;;;;;;;0.65;0.65;;;12.10;99.90;;;;;;4993504;28;20176;-76
2023/03/14 06:43:49;;;;;;;0.43;0.35;;;12.10;99.90;;;;;;4992775;28;20202;-78
2023/03/14 06:46:15;;;;;;;0.90;0.52;;;12.10;99.90;;;;;;4993315;28;20176;-75
2023/03/14 06:48:41;;;;;;;0.60;0.40;;;12.20;99.90;;;;;;4993425;28;20183;-77
2023/03/14 06:51:06;;;;;;;1.15;0.52;;;12.20;99.90;;;;;;4992749;28;20239;-78
2023/03/14 06:53:37;;;;;;;0.35;0.30;;;12.20;99.90;;;;;;4993276;28;20259;-79
2023/03/14 06:56:03;;;;;;;0.50;0.40;;;12.20;99.90;;;;;;4993270;28;20202;-78
2023/03/14 06:58:29;;;;;;;0.70;0.20;;;12.20;99.90;;;;;;4992480;28;20226;-78
2023/03/14 07:00:54;;;;;;;0.38;0.30;;;12.20;99.90;;;;;;4992984;28;20211;-76
2023/03/14 07:03:20;;;;;;;0.25;0.10;;;12.20;99.90;;;;;;4992584;28;20207;-78
2023/03/14 07:05:48;;;;;;;0.32;0.22;;;12.20;99.90;;;;;;4992949;28;20196;-78
2023/03/14 07:08:16;;;;;;;0.40;0.30;;;12.30;99.90;;;;;;4993336;28;20282;-72
2023/03/14 07:10:42;;;;;;;1.30;0.43;;;12.30;99.90;;;;;;4993061;28;20168;-76
2023/03/14 07:13:10;;;;;;;0.43;0.20;;;12.30;99.90;;;;;;4992798;28;20176;-79
2023/03/14 07:15:38;;;;;;;0.22;0.22;;;12.40;99.90;;;;;;4992228;28;20314;-74
2023/03/14 07:18:08;;;;;;;0.47;0.38;;;12.40;99.90;;;;;;4992473;28;20176;-79
2023/03/14 07:20:36;;;;;;;0.77;0.47;;;12.50;99.90;;;;;;4992474;28;20184;-77
2023/03/14 07:23:04;;;;;;;0.63;0.40;;;12.40;99.90;;;;;;4992031;28;20204;-74
2023/03/14 07:25:30;;;;;;;0.45;0.30;;;12.50;99.90;;;;;;4993153;28;20204;-80
2023/03/14 07:27:55;;;;;;;0.60;0.50;;;12.50;99.90;;;;;;4992832;28;20211;-76
2023/03/14 07:30:23;;;;;;;0.30;0.20;;;12.50;99.90;;;;;;4992746;28;20204;-77
2023/03/14 07:32:49;;;;;;;0.45;0.32;;;12.50;99.90;;;;;;4992154;28;20183;-79
2023/03/14 07:35:17;;;;;;;0.22;0.20;;;12.50;99.90;;;;;;4992353;28;20184;-80
2023/03/14 07:37:43;;;;;;;0.65;0.35;;;12.60;99.90;;;;;;4992768;28;20259;-77
2023/03/14 07:40:10;;;;;;;0.70;0.20;;;12.60;99.90;;;;;;4992721;28;20279;-78
2023/03/14 07:42:36;;;;;;;0.50;0.30;;;12.70;99.90;;;;;;4992426;28;20342;-80
2023/03/14 07:45:04;;;;;;;0.47;0.38;;;12.70;99.90;;;;;;4992836;28;20234;-77
2023/03/14 07:47:29;;;;;;;0.20;0.20;;;12.70;99.90;;;;;;4992344;28;20176;-79
2023/03/14 07:49:57;;;;;;;0.52;0.40;;;12.80;99.90;;;;;;4991976;28;20168;-79
2023/03/14 07:52:25;;;;;;;0.50;0.40;;;12.90;99.90;;;;;;4991605;28;20200;-79
2023/03/14 07:54:55;;;;;;;0.38;0.25;;;12.90;99.90;;;;;;4992225;28;20183;-77
2023/03/14 07:57:24;;;;;;;0.40;0.30;;;13.00;99.90;;;;;;4992722;28;20214;-78
2023/03/14 07:59:49;;;;;;;0.32;0.30;;;13.10;99.90;;;;;;4992235;28;20227;-77
2023/03/14 08:02:15;;;;;;;0.50;0.30;;;13.10;99.90;;;;;;4998435;28;20207;-63
2023/03/14 08:04:41;;;;;;;0.20;0.20;;;13.20;99.90;;;;;;5010638;28;20164;-62
2023/03/14 08:07:07;;;;;;;0.22;0.20;;;13.30;99.90;;;;;;5013377;28;20198;-69
2023/03/14 08:09:33;;;;;;;0.20;0.20;;;13.40;99.90;;;;;;4996540;28;20208;-75
2023/03/14 08:12:01;;;;;;;0.22;0.22;;;13.40;99.90;;;;;;4991941;28;20223;-76
2023/03/14 08:14:28;;;;;;;0.40;0.20;;;13.50;99.90;;;;;;4992588;28;20176;-80
2023/03/14 08:16:56;;;;;;;0.30;0.20;;;13.60;99.90;;;;;;4992691;28;20168;-66
2023/03/14 08:19:22;;;;;;;0.40;0.20;;;13.60;99.90;;;;;;4991786;28;20268;-66
2023/03/14 08:21:50;;;;;;;0.10;0.10;;;13.70;99.90;;;;;;4991918;28;20203;-65
2023/03/14 08:24:16;;;;;;;0.85;0.47;;;13.80;99.90;;;;;;4992251;28;20180;-66
2023/03/14 08:26:41;;;;;;;1.02;0.57;;;13.90;99.90;;;;;;4991505;28;20245;-66
2023/03/14 08:29:07;;;;;;;0.35;0.28;;;13.90;99.90;;;;;;4992360;28;20172;-66
2023/03/14 08:31:35;;;;;;;0.40;0.20;;;14.00;99.90;;;;;;4993573;28;20176;-66
2023/03/14 08:34:01;;;;;;;0.30;0.15;;;14.10;99.90;;;;;;4995371;28;20195;-66
2023/03/14 08:36:27;;;;;;;2.88;0.90;;;14.20;99.90;;;;;;4995665;28;20168;-65
2023/03/14 08:38:55;;;;;;;0.60;0.40;;;14.30;99.90;;;;;;4995469;28;20322;-66
2023/03/14 08:41:21;;;;;;;1.27;0.47;;;14.30;99.90;;;;;;4995886;28;20172;-65
2023/03/14 08:43:49;;;;;;;0.93;0.32;;;14.30;99.90;;;;;;4994766;28;20223;-66
2023/03/14 08:46:16;;;;;;;0.00;0.00;;;14.40;99.90;;;;;;4995230;28;20206;-65
2023/03/14 08:48:46;;;;;;;0.15;0.15;;;14.40;99.90;;;;;;4995587;28;20172;-66
2023/03/14 08:51:13;;;;;;;0.75;0.40;;;14.50;99.90;;;;;;4995769;28;20187;-65
2023/03/14 08:53:40;;;;;;;0.90;0.25;;;14.40;99.90;;;;;;4995038;28;20199;-66
2023/03/14 08:56:07;;;;;;;0.35;0.20;;;14.50;99.90;;;;;;4994960;28;20211;-65
2023/03/14 08:58:37;;;;;;;0.57;0.22;;;14.50;99.90;;;;;;4979875;28;20195;-65
2023/03/14 09:01:02;;;;;;;0.52;0.20;;;14.50;99.90;;;;;;4994387;28;20205;-66
2023/03/14 09:03:28;;;;;;;0.10;0.10;;;14.50;99.90;;;;;;4995323;28;20203;-65
2023/03/14 09:05:54;;;;;;;0.20;0.20;;;14.50;99.90;;;;;;4995570;28;20183;-66
2023/03/14 09:08:24;;;;;;;0.80;0.22;;;14.50;99.90;;;;;;4994554;28;20230;-66
2023/03/14 09:10:50;;;;;;;0.20;0.20;;;14.50;99.90;;;;;;4994827;28;20168;-67
2023/03/14 09:13:18;;;;;;;0.68;0.20;;;14.50;99.90;;;;;;4994537;28;20202;-66
2023/03/14 09:15:43;;;;;;;0.20;0.20;;;14.40;99.90;;;;;;4994539;28;20183;-66
2023/03/14 09:18:09;;;;;;;0.50;0.20;;;14.30;99.90;;;;;;4994745;28;20176;-65
2023/03/14 09:20:37;;;;;;;0.35;0.20;;;14.10;99.90;;;;;;4994622;28;20176;-66
2023/03/14 09:23:04;;;;;;;0.20;0.10;;;13.90;99.90;;;;;;4994623;28;20235;-67
2023/03/14 09:25:33;;;;;;;1.38;0.30;;;13.80;99.90;;;;;;4994692;28;20175;-67
2023/03/14 09:28:03;;;;;;;0.20;0.13;;;13.60;99.90;;;;;;4994345;28;20203;-66
2023/03/14 09:30:29;;;;;;;2.75;0.30;;;13.50;99.90;;;;;;4994898;28;20192;-67
2023/03/14 09:32:54;;;;;;;0.75;0.30;;;13.40;99.90;;;;;;4994140;28;20226;-66
2023/03/14 09:35:20;;;;;;;0.60;0.20;;;13.30;99.90;;;;;;4993936;28;20238;-67
2023/03/14 09:37:49;;;;;;;0.30;0.28;;;13.20;99.90;;;;;;4994253;28;20276;-66
2023/03/14 09:40:19;;;;;;;0.70;0.20;;;13.10;99.90;;;;;;4994120;28;20267;-67
2023/03/14 09:42:52;;;;;;;0.30;0.30;;;13.10;99.90;;;;;;4994586;28;20211;-67
2023/03/14 09:45:31;;;;;;;0.50;0.30;;;13.00;99.90;;;;;;4978459;28;20172;-67
2023/03/14 09:47:58;;;;;;;0.40;0.25;;;13.00;99.90;;;;;;4994748;28;20189;-67
2023/03/14 09:50:25;;;;;;;0.50;0.22;;;13.00;99.90;;;;;;4994702;28;20179;-66
2023/03/14 09:52:56;;;;;;;0.80;0.20;;;12.90;99.90;;;;;;4994575;28;20266;-67
2023/03/14 09:55:22;;;;;;;0.47;0.22;;;12.90;99.90;;;;;;4993963;28;20200;-67
2023/03/14 09:57:57;;;;;;;0.28;0.28;;;12.80;99.90;;;;;;4993777;28;20192;-68
2023/03/14 10:00:30;;;;;;;0.82;0.50;;;12.70;99.90;;;;;;4994279;28;20270;-68
2023/03/14 10:03:06;;;;;;;0.50;0.40;;;12.50;99.90;;;;;;4994183;28;20230;-67
2023/03/14 10:05:32;;;;;;;0.82;0.50;;;12.30;99.90;;;;;;4994534;28;20164;-68
2023/03/14 10:07:57;;;;;;;1.08;0.70;;;12.00;99.90;;;;;;4993764;28;20180;-69
2023/03/14 10:10:26;;;;;;;0.85;0.70;;;11.80;99.90;;;;;;4994219;28;20214;-69
2023/03/14 10:13:00;;;;;;;1.77;0.70;;;11.50;99.90;;;;;;4994015;28;20176;-67
2023/03/14 10:15:31;;;;;;;0.73;0.60;;;11.30;99.90;;;;;;4994860;28;20186;-69
2023/03/14 10:18:00;;;;;;;1.35;0.70;;;11.10;99.90;;;;;;4995287;28;20188;-69
2023/03/14 10:20:32;;;;;;;1.40;0.70;;;10.90;99.90;;;;;;4994896;28;20171;-69
2023/03/14 10:23:14;;;;;;;0.60;0.52;;;10.70;99.90;;;;;;4995405;28;20214;-68
2023/03/14 10:25:45;;;;;;;1.03;0.53;;;10.60;99.90;;;;;;4994537;28;20176;-67
2023/03/14 10:28:33;;;;;;;1.07;0.50;;;10.50;99.90;;;;;;4994178;28;20266;-67
2023/03/14 10:31:01;;;;;;;0.70;0.67;;;10.30;99.90;;;;;;4993997;28;20183;-68
2023/03/14 10:33:36;;;;;;;0.60;0.60;;;10.20;99.90;;;;;;4993460;28;20180;-68
2023/03/14 10:36:03;;;;;;;0.50;0.50;;;10.10;99.90;;;;;;4993752;28;20230;-68
2023/03/14 10:38:34;;;;;;;0.47;0.47;;;10.10;99.90;;;;;;4992761;28;20168;-67
2023/03/14 10:41:03;;;;;;;2.80;0.60;;;10.00;99.90;;;;;;4993031;28;20176;-66
2023/03/14 10:43:35;;;;;;;0.77;0.50;;;9.90;99.90;;;;;;4992808;28;20267;-66
2023/03/14 10:46:09;;;;;;;0.80;0.63;;;9.90;99.90;;;;;;4992920;28;20171;-67
2023/03/14 10:48:40;;;;;;;0.73;0.50;;;9.90;99.90;;;;;;4992895;28;20185;-66
2023/03/14 10:51:25;;;;;;;0.63;0.60;;;9.80;99.90;;;;;;4992981;28;20203;-66
2023/03/14 10:54:01;;;;;;;0.83;0.50;;;9.80;99.90;;;;;;4992780;28;20179;-66
2023/03/14 10:56:33;;;;;;;0.60;0.60;;;9.80;99.90;;;;;;4993148;28;20231;-67
2023/03/14 10:59:01;;;;;;;0.70;0.50;;;9.80;99.90;;;;;;4992965;28;20199;-66
2023/03/14 11:01:43;;;;;;;0.87;0.43;;;9.80;99.90;;;;;;4992609;28;20180;-67
2023/03/14 11:04:40;;;;;;;1.67;0.60;;;9.80;99.90;;;;;;4992753;28;20239;-67
2023/03/14 11:07:32;;;;;;;0.70;0.50;;;9.90;99.90;;;;;;4993723;28;20172;-67
2023/03/14 11:10:10;;;;;;;1.93;0.60;;;9.90;99.90;;;;;;4976808;28;20264;-67
2023/03/14 11:12:52;;;;;;;1.53;0.60;;;9.90;99.90;;;;;;4992359;28;20187;-67
2023/03/14 11:15:42;;;;;;;1.00;0.53;;;10.00;99.90;;;;;;4992850;28;20172;-67
2023/03/14 11:18:53;;;;;;;0.90;0.50;;;10.00;99.90;;;;;;4992842;28;20196;-66
2023/03/14 11:21:29;;;;;;;1.53;0.50;;;10.00;99.90;;;;;;4966950;28;20327;-67
2023/03/14 11:24:19;;;;;;;1.80;0.80;;;10.00;99.90;;;;;;4992278;28;20303;-67
2023/03/14 11:27:05;;;;;;;1.67;0.73;;;10.00;99.90;;;;;;4992840;28;20196;-66
2023/03/14 11:29:40;;;;;;;2.23;0.63;;;10.00;99.90;;;;;;4991965;28;20238;-67
2023/03/14 11:32:16;;;;;;;1.07;0.67;;;10.00;99.90;;;;;;4992353;28;20199;-67
2023/03/14 11:34:53;;;;;;;0.97;0.80;;;10.10;99.90;;;;;;4992022;28;20263;-67
2023/03/14 11:37:33;;;;;;;0.90;0.67;;;10.10;99.90;;;;;;4992470;28;20180;-66
2023/03/14 11:40:20;;;;;;;0.70;0.60;;;10.20;99.90;;;;;;4992614;28;20172;-67
2023/03/14 11:42:54;;;;;;;1.48;0.65;;;10.30;99.90;;;;;;4991695;28;20199;-66
2023/03/14 11:45:26;;;;;;;2.22;0.85;;;10.50;99.90;;;;;;4992255;28;20262;-67
2023/03/14 11:48:16;;;;;;;1.20;0.90;;;10.70;99.90;;;;;;4992397;28;20172;-66
2023/03/14 11:50:44;;;;;;;1.85;0.90;;;10.90;99.90;;;;;;4975531;28;20183;-66
2023/03/14 11:53:14;;;;;;;2.08;0.90;;;11.00;99.90;;;;;;4991931;28;20271;-67
2023/03/14 11:55:42;;;;;;;2.75;1.05;;;11.10;99.90;;;;;;4992189;28;20233;-66
2023/03/14 11:58:27;;;;;;;1.25;1.00;;;11.20;99.90;;;;;;4991842;28;20196;-67
2023/03/14 12:00:56;;;;;;;1.77;1.10;;;11.20;99.90;;;;;;4992157;28;20183;-64
2023/03/14 12:03:46;;;;;;;1.08;0.90;;;11.40;99.90;;;;;;4991268;28;20231;-67
2023/03/14 12:06:21;;;;;;;2.22;1.20;;;11.40;99.90;;;;;;4992443;28;20231;-67
2023/03/14 12:08:55;;;;;;;1.88;1.20;;;11.50;99.90;;;;;;4995844;28;20187;-67
2023/03/14 12:11:37;;;;;;;1.83;1.25;;;11.60;99.90;;;;;;4996339;28;20171;-67
2023/03/14 12:14:20;;;;;;;2.03;0.98;;;11.80;99.90;;;;;;4995954;28;20183;-69
2023/03/14 12:16:50;;;;;;;0.47;0.47;;;11.70;99.90;;;;;;4996287;28;20175;-70
2023/03/14 12:19:18;;;;;;;1.40;0.55;;;11.50;99.90;;;;;;4995713;28;20215;-69
2023/03/14 12:21:51;;;;;;;0.30;0.30;;;11.20;99.90;;;;;;4996622;28;20179;-67
2023/03/14 12:24:28;;;;;;;0.47;0.40;;;10.70;99.90;;;;;;4996271;28;20176;-66
2023/03/14 12:26:56;;;;;;;1.47;0.53;;;10.40;99.90;;;;;;4995959;28;20199;-67
2023/03/14 12:29:21;;;;;;;0.80;0.63;;;10.10;99.90;;;;;;4995794;28;20187;-66
2023/03/14 12:32:09;;;;;;;1.70;0.50;;;9.80;99.90;;;;;;4995750;28;20176;-67
2023/03/14 12:34:47;;;;;;;0.67;0.50;;;9.60;99.90;;;;;;4995366;28;20187;-68
2023/03/14 12:37:26;;;;;;;1.03;0.63;;;9.40;99.90;;;;;;4994970;28;20187;-71
2023/03/14 12:40:17;;;;;;;1.30;0.40;;;9.20;99.90;;;;;;4994915;28;20195;-68
2023/03/14 12:43:03;;;;;;;1.33;0.60;;;9.10;99.90;;;;;;4995076;28;20292;-68
2023/03/14 12:45:38;;;;;;;1.30;0.60;;;8.90;99.90;;;;;;4995580;28;20179;-68
2023/03/14 12:48:16;;;;;;;1.13;0.87;;;8.90;99.90;;;;;;4995282;28;20179;-66
2023/03/14 12:51:03;;;;;;;1.67;0.83;;;8.80;99.90;;;;;;4994758;28;20172;-67
2023/03/14 12:53:48;;;;;;;2.73;0.80;;;8.80;99.90;;;;;;4995508;28;20199;-68
2023/03/14 12:56:27;;;;;;;2.30;1.30;;;8.80;99.90;;;;;;4979820;28;20160;-69
2023/03/14 12:58:59;;;;;;;1.27;0.93;;;8.80;99.90;;;;;;4995409;28;20203;-68
2023/03/14 13:01:27;;;;;;;2.00;1.20;;;8.80;99.90;;;;;;4995058;28;20203;-68